createdAt,value
2023-04-07T00:03:06.994Z,4.20
2023-04-07T00:08:10.606Z,4.20
2023-04-07T00:13:13.568Z,4.10
2023-04-07T00:18:16.376Z,4.10
2023-04-07T00:23:19.946Z,4.10
2023-04-07T00:28:22.932Z,4.10
2023-04-07T00:33:26.291Z,4.10
2023-04-07T00:38:29.229Z,4.10
2023-04-07T00:43:32.281Z,4.10
2023-04-07T00:48:36.599Z,4.10
2023-04-07T00:53:39.794Z,4.10
2023-04-07T00:58:44.484Z,4.10
2023-04-07T01:03:59.445Z,4.10
2023-04-07T01:09:12.264Z,4.20
2023-04-07T01:14:18.146Z,4.20
2023-04-07T01:19:53.344Z,4.20
2023-04-07T01:26:00.539Z,4.20
2023-04-07T01:31:05.711Z,4.20
2023-04-07T01:36:10.438Z,4.20
2023-04-07T01:41:15.586Z,4.20
2023-04-07T01:46:18.426Z,4.20
2023-04-07T01:51:23.440Z,4.20
2023-04-07T01:56:26.432Z,4.20
2023-04-07T02:01:29.959Z,4.20
2023-04-07T02:06:39.655Z,4.20
2023-04-07T02:11:45.527Z,4.20
2023-04-07T02:16:49.306Z,4.10
2023-04-07T02:21:53.180Z,4.10
2023-04-07T02:26:56.412Z,4.10
2023-04-07T02:31:59.211Z,4.10
2023-04-07T02:37:02.271Z,4.10
2023-04-07T02:42:05.704Z,4.00
2023-04-07T02:47:08.936Z,4.00
2023-04-07T02:52:12.717Z,4.00
2023-04-07T02:57:15.765Z,4.00
2023-04-07T03:02:19.317Z,3.90
2023-04-07T03:07:22.343Z,3.90
2023-04-07T03:12:25.709Z,3.90
2023-04-07T03:17:28.756Z,3.90
2023-04-07T03:22:32.085Z,3.80
2023-04-07T03:27:35.086Z,3.80
2023-04-07T03:32:38.127Z,3.90
2023-04-07T03:37:41.158Z,3.90
2023-04-07T03:42:44.075Z,3.90
2023-04-07T03:47:47.283Z,3.90
2023-04-07T03:52:50.229Z,3.90
2023-04-07T03:57:53.273Z,3.90
2023-04-07T04:02:56.276Z,4.00
2023-04-07T04:07:59.260Z,4.00
2023-04-07T04:13:04.072Z,4.00
2023-04-07T04:18:07.098Z,4.10
2023-04-07T04:23:10.168Z,4.10
2023-04-07T04:28:13.250Z,4.20
2023-04-07T04:33:16.182Z,4.30
2023-04-07T04:38:19.626Z,4.40
2023-04-07T04:43:22.560Z,4.40
2023-04-07T04:48:25.404Z,4.50
2023-04-07T04:53:28.788Z,4.60
2023-04-07T04:58:32.393Z,4.60
2023-04-07T05:03:36.017Z,4.60
2023-04-07T05:08:39.030Z,4.60
2023-04-07T05:13:42.014Z,4.70
2023-04-07T05:18:44.922Z,4.80
2023-04-07T05:23:48.042Z,4.90
2023-04-07T05:28:51.030Z,5.10
2023-04-07T05:33:53.913Z,5.20
2023-04-07T05:38:56.912Z,5.30
2023-04-07T05:43:59.700Z,5.50
2023-04-07T05:49:16.812Z,5.50
2023-04-07T05:54:22.759Z,5.60
2023-04-07T05:59:26.536Z,5.60
2023-04-07T06:04:29.703Z,5.70
2023-04-07T06:09:32.726Z,5.80
2023-04-07T06:14:35.719Z,5.90
2023-04-07T06:19:38.701Z,6.00
2023-04-07T06:24:41.881Z,6.10
2023-04-07T06:29:44.968Z,6.10
2023-04-07T06:34:48.014Z,6.30
2023-04-07T06:39:51.140Z,6.30
2023-04-07T06:44:53.929Z,6.40
2023-04-07T06:49:56.837Z,6.30
2023-04-07T06:54:59.800Z,6.30
2023-04-07T07:00:02.982Z,6.10
2023-04-07T07:05:11.669Z,5.80
2023-04-07T07:10:14.444Z,5.60
2023-04-07T07:15:18.166Z,5.40
2023-04-07T07:20:23.548Z,5.30
2023-04-07T07:25:29.705Z,5.30
2023-04-07T07:30:32.847Z,5.30
2023-04-07T07:35:37.971Z,5.30
2023-04-07T07:40:41.233Z,5.30
2023-04-07T07:45:44.381Z,5.40
2023-04-07T07:50:48.474Z,5.60
2023-04-07T07:55:51.927Z,5.60
2023-04-07T08:00:55.094Z,5.60
2023-04-07T08:05:58.149Z,5.60
2023-04-07T08:11:01.309Z,5.70
2023-04-07T08:16:04.616Z,5.80
2023-04-07T08:21:07.690Z,5.80
2023-04-07T08:26:11.105Z,5.90
2023-04-07T08:31:14.060Z,6.00
2023-04-07T08:36:17.013Z,6.10
2023-04-07T08:41:47.284Z,6.20
2023-04-07T08:46:56.200Z,6.40
2023-04-07T08:52:04.060Z,6.50
2023-04-07T08:57:09.091Z,6.60
2023-04-07T09:02:12.175Z,6.90
2023-04-07T09:07:15.820Z,7.10
2023-04-07T09:12:19.078Z,7.20
2023-04-07T09:17:22.396Z,7.30
2023-04-07T09:22:54.970Z,7.40
2023-04-07T09:28:04.842Z,7.50
2023-04-07T09:33:07.939Z,7.60
2023-04-07T09:38:11.257Z,7.70
2023-04-07T09:43:19.492Z,7.80
2023-04-07T09:48:22.424Z,7.90
2023-04-07T09:53:49.583Z,8.00
2023-04-07T09:58:53.349Z,8.10
2023-04-07T10:03:57.141Z,8.00
2023-04-07T10:09:02.052Z,7.90
2023-04-07T10:14:05.709Z,7.70
2023-04-07T10:19:09.295Z,7.50
2023-04-07T10:24:51.755Z,7.50
2023-04-07T10:29:55.721Z,7.50
2023-04-07T10:35:01.312Z,7.50
2023-04-07T10:40:19.625Z,7.60
2023-04-07T10:45:48.391Z,7.60
2023-04-07T10:51:07.975Z,7.70
2023-04-07T10:56:11.164Z,7.80
2023-04-07T11:01:14.071Z,7.90
2023-04-07T11:06:17.071Z,7.90
2023-04-07T11:11:41.759Z,8.00
2023-04-07T11:16:45.864Z,8.00
2023-04-07T11:21:49.291Z,7.90
2023-04-07T11:26:52.278Z,7.90
2023-04-07T11:31:58.460Z,7.90
2023-04-07T11:37:25.001Z,8.00
2023-04-07T11:42:36.835Z,8.00
2023-04-07T11:47:40.968Z,8.00
2023-04-07T11:52:48.875Z,8.00
2023-04-07T11:57:52.781Z,8.10
2023-04-07T12:02:56.741Z,8.10
2023-04-07T12:08:00.369Z,8.20
2023-04-07T12:13:03.566Z,8.20
2023-04-07T12:18:06.976Z,8.20
2023-04-07T12:23:09.999Z,8.20
2023-04-07T12:28:12.967Z,8.20
2023-04-07T12:33:15.987Z,8.10
2023-04-07T12:38:19.098Z,8.10
2023-04-07T12:43:22.075Z,8.20
2023-04-07T12:48:27.396Z,8.30
2023-04-07T12:53:30.420Z,8.30
2023-04-07T12:58:33.455Z,8.40
2023-04-07T13:03:36.604Z,8.40
2023-04-07T13:08:40.841Z,8.30
2023-04-07T13:13:45.087Z,8.30
2023-04-07T13:18:48.091Z,8.20
2023-04-07T13:23:51.686Z,8.10
2023-04-07T13:28:54.753Z,8.10
2023-04-07T13:33:57.727Z,8.10
2023-04-07T13:39:00.790Z,8.10
2023-04-07T13:44:03.781Z,8.20
2023-04-07T13:49:07.505Z,8.20
2023-04-07T13:54:10.758Z,8.20
2023-04-07T13:59:13.694Z,8.10
2023-04-07T14:04:16.754Z,8.10
2023-04-07T14:09:20.029Z,8.00
2023-04-07T14:14:23.387Z,8.00
2023-04-07T14:19:26.498Z,8.10
2023-04-07T14:24:29.462Z,8.10
2023-04-07T14:29:32.777Z,8.10
2023-04-07T14:34:35.919Z,8.10
2023-04-07T14:39:39.519Z,8.20
2023-04-07T14:44:42.885Z,8.20
2023-04-07T14:49:45.924Z,8.10
2023-04-07T14:54:49.122Z,8.10
2023-04-07T14:59:52.181Z,8.10
2023-04-07T15:04:55.794Z,8.10
2023-04-07T15:09:59.906Z,8.10
2023-04-07T15:15:03.949Z,8.10
2023-04-07T15:20:07.576Z,8.10
2023-04-07T15:25:10.665Z,8.10
2023-04-07T15:30:13.829Z,8.00
2023-04-07T15:35:17.331Z,8.00
2023-04-07T15:40:20.748Z,8.00
2023-04-07T15:45:23.897Z,7.90
2023-04-07T15:50:29.924Z,7.90
2023-04-07T15:55:34.801Z,7.90
2023-04-07T16:00:39.305Z,7.90
2023-04-07T16:05:42.301Z,7.80
2023-04-07T16:10:45.760Z,7.80
2023-04-07T16:15:48.665Z,7.80
2023-04-07T16:20:51.811Z,7.70
2023-04-07T16:25:54.717Z,7.70
2023-04-07T16:30:57.547Z,7.60
2023-04-07T16:36:00.531Z,7.60
2023-04-07T16:41:04.811Z,7.60
2023-04-07T16:46:09.280Z,7.50
2023-04-07T16:51:19.594Z,7.50
2023-04-07T16:56:24.854Z,7.40
2023-04-07T17:01:30.143Z,7.30
2023-04-07T17:06:33.207Z,7.10
2023-04-07T17:11:36.205Z,7.00
2023-04-07T17:16:39.765Z,6.90
2023-04-07T17:21:43.317Z,6.80
2023-04-07T17:26:46.680Z,6.70
2023-04-07T17:31:49.947Z,6.60
2023-04-07T17:36:52.891Z,6.60
2023-04-07T17:41:55.771Z,6.60
2023-04-07T17:46:59.063Z,6.50
2023-04-07T17:52:02.056Z,6.50
2023-04-07T17:57:06.518Z,6.40
2023-04-07T18:02:10.312Z,6.40
2023-04-07T18:07:13.581Z,6.40
2023-04-07T18:12:16.499Z,6.40
2023-04-07T18:17:19.495Z,6.40
2023-04-07T18:22:22.680Z,6.40
2023-04-07T18:27:28.407Z,6.30
2023-04-07T18:32:31.441Z,6.20
2023-04-07T18:37:34.532Z,6.10
2023-04-07T18:42:37.467Z,6.20
2023-04-07T18:47:40.525Z,6.20
2023-04-07T18:52:43.654Z,6.10
2023-04-07T18:57:46.790Z,6.10
2023-04-07T19:02:49.894Z,6.20
2023-04-07T19:07:53.009Z,6.10
2023-04-07T19:12:56.040Z,6.10
2023-04-07T19:17:59.797Z,6.10
2023-04-07T19:23:08.297Z,6.00
2023-04-07T19:28:11.606Z,6.00
2023-04-07T19:33:14.728Z,5.90
2023-04-07T19:38:18.319Z,5.90
2023-04-07T19:43:21.327Z,5.80
2023-04-07T19:48:25.352Z,5.80
2023-04-07T19:53:29.377Z,5.70
2023-04-07T19:58:34.475Z,5.70
2023-04-07T20:03:39.897Z,5.60
2023-04-07T20:08:44.327Z,5.60
2023-04-07T20:13:49.153Z,5.70
2023-04-07T20:18:52.366Z,5.70
2023-04-07T20:23:55.274Z,5.60
2023-04-07T20:28:58.244Z,5.60
2023-04-07T20:34:01.363Z,5.50
2023-04-07T20:39:04.373Z,5.50
2023-04-07T20:44:09.447Z,5.40
2023-04-07T20:49:12.474Z,5.40
2023-04-07T20:54:17.019Z,5.40
2023-04-07T20:59:19.923Z,5.40
2023-04-07T21:04:24.764Z,5.40
2023-04-07T21:09:28.002Z,5.40
2023-04-07T21:14:32.208Z,5.50
2023-04-07T21:19:36.733Z,5.40
2023-04-07T21:24:40.246Z,5.40
2023-04-07T21:29:43.234Z,5.40
2023-04-07T21:34:46.248Z,5.30
2023-04-07T21:39:52.767Z,5.30
2023-04-07T21:44:55.889Z,5.20
2023-04-07T21:49:59.870Z,5.20
2023-04-07T21:55:02.884Z,5.20
2023-04-07T22:00:09.626Z,5.20
2023-04-07T22:05:12.701Z,5.20
2023-04-07T22:10:15.815Z,5.10
2023-04-07T22:15:19.047Z,5.00
2023-04-07T22:20:22.356Z,4.90
2023-04-07T22:25:26.012Z,4.80
2023-04-07T22:30:29.073Z,4.70
2023-04-07T22:35:32.186Z,4.60
2023-04-07T22:40:35.403Z,4.50
2023-04-07T22:45:38.383Z,4.50
2023-04-07T22:50:41.292Z,4.50
2023-04-07T22:55:44.393Z,4.50
2023-04-07T23:00:47.909Z,4.50
2023-04-07T23:05:50.917Z,4.50
2023-04-07T23:10:54.031Z,4.60
2023-04-07T23:15:58.122Z,4.60
2023-04-07T23:21:01.647Z,4.50
2023-04-07T23:26:06.796Z,4.50
2023-04-07T23:31:09.884Z,4.40
2023-04-07T23:36:12.835Z,4.30
2023-04-07T23:41:16.437Z,4.30
2023-04-07T23:46:19.581Z,4.30
2023-04-07T23:51:22.927Z,4.40
2023-04-07T23:56:26.224Z,4.40
